Time;durP1;ratioP1;P1;durP2;ratioP2;P2;SDS_P1;SDS_P2;PMS_P1;PMS_P2;Temp;Humidity;BMP_temperature;BMP_pressure;BME280_temperature;BME280_humidity;BME280_pressure;Samples;Min_cycle;Max_cycle;Signal;HPM_P1;HPM_P2
2024/01/29 00:00:56;;;;;;;3.73;3.43;;;7.70;25.70;;;;;;5041628;28;20481;-78
2024/01/29 00:03:24;;;;;;;3.63;3.33;;;7.60;25.10;;;;;;5038275;28;20448;-81
2024/01/29 00:05:53;;;;;;;2.80;2.70;;;7.60;25.10;;;;;;5038741;28;20525;-79
2024/01/29 00:08:21;;;;;;;2.87;2.67;;;7.60;24.40;;;;;;5040707;28;20456;-80
2024/01/29 00:10:49;;;;;;;4.23;2.87;;;7.60;23.40;;;;;;5034092;28;20533;-81
2024/01/29 00:13:17;;;;;;;3.07;2.60;;;7.60;23.30;;;;;;5040822;28;20824;-82
2024/01/29 00:15:47;;;;;;;2.93;2.43;;;7.70;23.60;;;;;;5038944;28;20458;-83
2024/01/29 00:18:15;;;;;;;2.97;2.70;;;7.70;23.40;;;;;;5039886;28;20456;-81
2024/01/29 00:20:43;;;;;;;3.20;2.50;;;7.60;23.00;;;;;;5036248;28;20492;-78
2024/01/29 00:23:11;;;;;;;2.73;2.53;;;7.60;22.60;;;;;;5036677;28;20452;-79
2024/01/29 00:25:39;;;;;;;3.27;3.07;;;7.40;22.00;;;;;;5038040;28;20792;-80
2024/01/29 00:28:07;;;;;;;2.97;2.67;;;7.30;21.50;;;;;;5040943;28;20452;-79
2024/01/29 00:30:36;;;;;;;3.33;3.13;;;7.40;21.60;;;;;;5040323;28;20477;-79
2024/01/29 00:33:05;;;;;;;3.57;3.27;;;7.40;20.20;;;;;;5040502;28;20459;-80
2024/01/29 00:35:34;;;;;;;3.00;2.77;;;7.40;19.80;;;;;;5039746;28;20456;-80
2024/01/29 00:38:03;;;;;;;2.70;2.60;;;7.40;19.70;;;;;;5040447;28;20441;-79
2024/01/29 00:40:33;;;;;;;3.30;3.10;;;7.30;19.80;;;;;;5042103;28;20849;-81
2024/01/29 00:43:01;;;;;;;2.80;2.60;;;7.20;19.10;;;;;;5038149;28;20457;-80
2024/01/29 00:45:30;;;;;;;4.20;3.40;;;7.20;19.00;;;;;;5040461;28;20456;-79
2024/01/29 00:47:58;;;;;;;3.40;3.10;;;7.10;19.30;;;;;;5035476;28;20463;-79
2024/01/29 00:50:27;;;;;;;2.90;2.70;;;7.10;19.60;;;;;;5041360;28;21191;-82
2024/01/29 00:52:56;;;;;;;2.70;2.50;;;7.10;20.30;;;;;;5042082;28;20458;-79
2024/01/29 00:55:25;;;;;;;5.30;3.10;;;7.00;20.10;;;;;;5040048;28;20488;-79
2024/01/29 00:57:53;;;;;;;2.90;2.73;;;6.90;19.40;;;;;;5038221;28;20456;-79
2024/01/29 01:00:22;;;;;;;3.73;3.43;;;6.90;19.20;;;;;;5040940;28;20480;-81
2024/01/29 01:02:50;;;;;;;3.13;2.73;;;6.80;17.70;;;;;;5041648;28;20472;-79
2024/01/29 01:05:20;;;;;;;3.50;3.20;;;6.90;17.50;;;;;;5042329;28;20482;-79
2024/01/29 01:07:50;;;;;;;2.33;2.20;;;6.90;18.30;;;;;;5040045;28;20476;-80
2024/01/29 01:10:18;;;;;;;2.60;2.40;;;6.80;19.00;;;;;;5040409;28;20542;-82
2024/01/29 01:12:46;;;;;;;2.80;2.60;;;6.80;17.90;;;;;;5036733;28;20453;-79
2024/01/29 01:15:14;;;;;;;2.83;2.50;;;6.90;17.80;;;;;;5038750;28;20502;-81
2024/01/29 01:17:42;;;;;;;2.80;2.60;;;6.80;19.40;;;;;;5038319;28;20465;-78
2024/01/29 01:20:11;;;;;;;2.37;2.23;;;6.80;18.20;;;;;;5039622;28;20475;-79
2024/01/29 01:22:40;;;;;;;3.37;3.17;;;6.70;17.90;;;;;;5036405;28;20831;-78
2024/01/29 01:25:09;;;;;;;2.57;2.37;;;6.80;18.10;;;;;;5034585;28;20464;-78
2024/01/29 01:27:38;;;;;;;2.40;2.23;;;6.80;18.80;;;;;;5038076;28;20456;-80
2024/01/29 01:30:08;;;;;;;2.70;2.50;;;6.80;18.50;;;;;;5038992;28;20460;-80
2024/01/29 01:32:36;;;;;;;2.17;2.03;;;6.60;17.10;;;;;;5040143;28;20500;-79
2024/01/29 01:35:05;;;;;;;2.90;1.83;;;6.60;18.30;;;;;;5040606;28;20452;-78
2024/01/29 01:37:33;;;;;;;2.63;2.43;;;6.60;18.00;;;;;;5035701;28;20453;-79
2024/01/29 01:40:02;;;;;;;2.90;2.70;;;6.60;17.30;;;;;;5037534;28;20480;-78
2024/01/29 01:42:32;;;;;;;2.73;2.50;;;6.60;18.00;;;;;;5036120;28;20464;-79
2024/01/29 01:45:00;;;;;;;3.33;2.97;;;6.60;18.60;;;;;;5032813;28;20440;-82
2024/01/29 01:47:28;;;;;;;2.30;2.10;;;6.60;18.40;;;;;;5035402;28;20464;-81
2024/01/29 01:49:56;;;;;;;2.30;2.10;;;6.50;17.90;;;;;;5033179;28;20506;-81
2024/01/29 01:52:25;;;;;;;2.23;1.90;;;6.40;18.40;;;;;;5033173;28;20471;-79
2024/01/29 01:54:53;;;;;;;2.20;1.87;;;6.40;17.40;;;;;;5035069;28;20535;-79
2024/01/29 01:57:22;;;;;;;2.40;2.20;;;6.40;18.30;;;;;;5032323;28;20460;-80
2024/01/29 01:59:52;;;;;;;2.00;1.90;;;6.40;18.50;;;;;;5033057;28;20463;-81
2024/01/29 02:02:21;;;;;;;2.93;2.07;;;6.40;17.60;;;;;;5030907;28;20665;-80
2024/01/29 02:04:49;;;;;;;2.23;2.13;;;6.30;17.70;;;;;;5045944;28;20460;-79
2024/01/29 02:07:19;;;;;;;1.70;1.60;;;6.40;18.70;;;;;;5037587;28;20832;-81
2024/01/29 02:09:48;;;;;;;2.07;1.80;;;6.40;19.40;;;;;;5034005;28;20850;-81
2024/01/29 02:12:17;;;;;;;2.20;2.00;;;6.40;19.00;;;;;;5036255;28;20873;-80
2024/01/29 02:14:45;;;;;;;2.27;1.60;;;6.50;18.70;;;;;;5034230;28;20479;-79
2024/01/29 02:17:15;;;;;;;1.97;1.87;;;6.50;17.70;;;;;;5036668;28;20451;-81
2024/01/29 02:19:43;;;;;;;2.27;2.00;;;6.70;18.70;;;;;;5033461;28;20460;-80
2024/01/29 02:22:11;;;;;;;2.10;1.90;;;6.70;17.80;;;;;;5038014;28;21010;-80
2024/01/29 02:24:41;;;;;;;1.90;1.80;;;6.70;17.90;;;;;;5035264;28;20464;-80
2024/01/29 02:27:09;;;;;;;2.00;1.90;;;6.60;17.50;;;;;;5036776;28;20483;-80
2024/01/29 02:29:38;;;;;;;2.00;1.90;;;6.70;17.70;;;;;;5037013;28;20476;-80
2024/01/29 02:32:07;;;;;;;2.03;1.83;;;6.60;17.80;;;;;;5036884;28;20557;-79
2024/01/29 02:34:36;;;;;;;2.27;2.07;;;6.60;18.80;;;;;;5039192;28;21249;-78
2024/01/29 02:37:04;;;;;;;2.20;2.10;;;6.60;18.80;;;;;;5033730;28;20499;-78
2024/01/29 02:39:33;;;;;;;1.93;1.70;;;6.40;18.60;;;;;;5036324;28;20531;-79
2024/01/29 02:42:02;;;;;;;2.60;2.00;;;6.30;17.40;;;;;;5037641;28;20478;-81
2024/01/29 02:44:30;;;;;;;1.80;1.70;;;6.40;18.40;;;;;;5036509;28;20452;-80
2024/01/29 02:46:58;;;;;;;1.87;1.77;;;6.40;17.00;;;;;;5036687;28;20501;-79
2024/01/29 02:49:27;;;;;;;1.93;1.83;;;6.30;17.00;;;;;;5036300;28;20459;-80
2024/01/29 02:51:55;;;;;;;2.27;2.07;;;6.40;16.90;;;;;;5035906;28;20468;-79
2024/01/29 02:54:23;;;;;;;2.03;1.80;;;6.40;16.50;;;;;;5034145;28;20522;-81
2024/01/29 02:56:51;;;;;;;2.27;2.17;;;6.50;17.60;;;;;;5032207;28;20949;-80
2024/01/29 02:59:21;;;;;;;2.10;1.90;;;6.30;16.70;;;;;;5036365;28;20518;-79
2024/01/29 03:01:49;;;;;;;3.80;2.17;;;6.40;17.50;;;;;;5033470;28;20480;-78
2024/01/29 03:04:17;;;;;;;2.00;1.90;;;6.40;17.10;;;;;;5035085;28;20492;-81
2024/01/29 03:06:46;;;;;;;1.87;1.77;;;6.30;29.10;;;;;;5032951;28;20560;-79
2024/01/29 03:09:14;;;;;;;1.70;1.60;;;6.30;29.50;;;;;;5034087;28;20957;-80
2024/01/29 03:11:42;;;;;;;2.20;1.90;;;6.30;17.00;;;;;;5033463;28;20475;-79
2024/01/29 03:14:11;;;;;;;2.07;1.90;;;6.40;16.50;;;;;;5031896;28;20474;-80
2024/01/29 03:16:41;;;;;;;5.33;1.70;;;6.50;20.00;;;;;;5035316;28;20451;-80
2024/01/29 03:19:09;;;;;;;1.90;1.80;;;6.60;17.40;;;;;;5034986;28;20452;-79
2024/01/29 03:21:37;;;;;;;1.80;1.70;;;6.80;17.60;;;;;;5039601;28;20578;-79
2024/01/29 03:24:06;;;;;;;2.73;2.00;;;6.80;17.80;;;;;;5034595;28;20462;-79
2024/01/29 03:26:34;;;;;;;2.43;2.07;;;6.60;16.70;;;;;;5033259;28;20449;-79
2024/01/29 03:29:02;;;;;;;2.17;2.07;;;6.50;16.20;;;;;;5035929;28;20478;-80
2024/01/29 03:31:30;;;;;;;2.20;1.97;;;6.60;16.90;;;;;;5035715;28;20479;-79
2024/01/29 03:34:00;;;;;;;2.30;1.87;;;6.70;17.40;;;;;;5035177;28;20816;-80
2024/01/29 03:36:28;;;;;;;2.43;2.23;;;6.70;16.10;;;;;;5032892;28;20444;-79
2024/01/29 03:38:56;;;;;;;2.10;1.97;;;6.70;17.10;;;;;;5032358;28;20460;-80
2024/01/29 03:41:24;;;;;;;1.80;1.70;;;6.80;17.20;;;;;;5028258;28;21039;-80
2024/01/29 03:43:52;;;;;;;1.80;1.70;;;6.80;17.30;;;;;;5033089;28;20476;-79
2024/01/29 03:46:20;;;;;;;1.90;1.80;;;6.90;16.70;;;;;;5035263;28;20574;-80
2024/01/29 03:48:48;;;;;;;1.83;1.73;;;6.90;17.70;;;;;;5033728;28;20534;-80
2024/01/29 03:51:18;;;;;;;2.10;2.00;;;6.90;16.40;;;;;;5036895;28;21028;-79
2024/01/29 03:53:46;;;;;;;1.90;1.80;;;6.90;17.80;;;;;;5030843;28;20455;-80
2024/01/29 03:56:15;;;;;;;2.00;1.90;;;6.90;16.60;;;;;;5031830;28;20521;-79
2024/01/29 03:58:43;;;;;;;2.50;2.30;;;6.90;17.10;;;;;;5031506;28;20965;-80
2024/01/29 04:01:11;;;;;;;2.00;1.80;;;6.70;16.10;;;;;;5033577;28;20475;-80
2024/01/29 04:03:40;;;;;;;1.90;1.80;;;6.70;16.60;;;;;;5032325;28;20486;-80
2024/01/29 04:06:09;;;;;;;1.90;1.80;;;6.80;16.50;;;;;;5033152;28;20641;-81
2024/01/29 04:08:38;;;;;;;2.10;1.97;;;6.70;16.20;;;;;;5035144;28;20444;-82
2024/01/29 04:11:06;;;;;;;2.43;2.23;;;6.60;15.90;;;;;;5033098;28;20484;-79
2024/01/29 04:13:35;;;;;;;2.10;1.90;;;6.50;15.40;;;;;;5032716;28;20452;-81
2024/01/29 04:16:04;;;;;;;2.57;1.87;;;6.60;15.80;;;;;;5035115;28;20487;-80
2024/01/29 04:18:33;;;;;;;2.07;1.90;;;6.60;15.50;;;;;;5032877;28;20487;-81
2024/01/29 04:21:01;;;;;;;2.30;2.10;;;6.60;15.40;;;;;;5039906;28;20463;-81
2024/01/29 04:23:29;;;;;;;4.40;4.00;;;6.80;15.30;;;;;;5038208;28;20491;-79
2024/01/29 04:25:59;;;;;;;2.13;2.00;;;6.80;14.70;;;;;;5037599;28;20447;-80
2024/01/29 04:28:28;;;;;;;1.77;1.60;;;7.00;19.70;;;;;;5037327;28;20463;-79
2024/01/29 04:30:56;;;;;;;2.47;2.30;;;7.10;14.70;;;;;;5038350;28;20497;-78
2024/01/29 04:33:25;;;;;;;2.00;1.90;;;7.20;15.40;;;;;;5041480;28;20448;-80
2024/01/29 04:35:53;;;;;;;1.83;1.50;;;7.20;14.60;;;;;;5039199;28;20479;-81
2024/01/29 04:38:22;;;;;;;1.60;1.50;;;7.20;14.50;;;;;;5040939;28;20466;-79
2024/01/29 04:40:50;;;;;;;1.80;1.70;;;7.20;14.50;;;;;;5040470;28;20484;-80
2024/01/29 04:43:19;;;;;;;1.93;1.83;;;7.10;13.90;;;;;;5036843;28;20488;-80
2024/01/29 04:45:47;;;;;;;1.73;1.63;;;7.10;14.50;;;;;;5036128;28;20542;-80
2024/01/29 04:48:16;;;;;;;1.93;1.80;;;7.00;16.10;;;;;;5034914;28;20456;-79
2024/01/29 04:50:44;;;;;;;2.30;2.10;;;7.00;14.70;;;;;;5029461;28;21020;-82
2024/01/29 04:53:13;;;;;;;1.90;1.80;;;6.90;14.20;;;;;;5038361;28;20494;-79
2024/01/29 04:55:41;;;;;;;1.70;1.60;;;6.90;14.40;;;;;;5037696;28;20507;-78
2024/01/29 04:58:09;;;;;;;1.87;1.70;;;6.80;13.20;;;;;;5033107;28;21534;-80
2024/01/29 05:00:39;;;;;;;1.70;1.60;;;6.80;13.70;;;;;;5029701;28;20476;-79
2024/01/29 05:03:07;;;;;;;2.10;2.00;;;6.80;13.70;;;;;;5030473;28;20472;-78
2024/01/29 05:05:35;;;;;;;1.80;1.70;;;6.80;13.80;;;;;;5036707;28;20448;-80
2024/01/29 05:08:04;;;;;;;1.50;1.40;;;6.80;14.00;;;;;;5034137;28;21549;-80
2024/01/29 05:10:32;;;;;;;1.90;1.80;;;6.80;14.40;;;;;;5031543;28;20467;-80
2024/01/29 05:13:03;;;;;;;1.87;1.77;;;6.80;14.90;;;;;;5033138;28;20561;-80
2024/01/29 05:15:34;;;;;;;1.97;1.80;;;6.80;14.20;;;;;;5037903;28;20462;-79
2024/01/29 05:18:04;;;;;;;1.60;1.50;;;6.70;13.20;;;;;;5032654;28;20463;-79
2024/01/29 05:20:32;;;;;;;1.80;1.70;;;6.70;13.30;;;;;;5032462;28;21015;-81
2024/01/29 05:23:00;;;;;;;1.70;1.60;;;6.70;12.90;;;;;;5033714;28;22294;-81
2024/01/29 05:25:28;;;;;;;1.60;1.50;;;6.70;13.10;;;;;;5033055;28;20965;-83
2024/01/29 05:27:56;;;;;;;2.00;1.90;;;6.60;13.30;;;;;;5031791;28;20456;-80
2024/01/29 05:30:25;;;;;;;2.10;2.00;;;6.60;13.90;;;;;;5035485;28;21399;-81
2024/01/29 05:32:53;;;;;;;2.10;2.00;;;6.60;13.70;;;;;;5035523;28;20574;-79
2024/01/29 05:35:23;;;;;;;2.10;1.90;;;6.50;14.70;;;;;;5035077;28;20456;-83
2024/01/29 05:37:51;;;;;;;2.20;1.93;;;6.50;14.20;;;;;;5036110;28;20467;-80
2024/01/29 05:40:19;;;;;;;2.13;1.93;;;6.50;14.60;;;;;;5034481;28;21209;-79
2024/01/29 05:42:52;;;;;;;1.90;1.80;;;6.50;15.60;;;;;;5032838;28;20484;-77
2024/01/29 05:45:21;;;;;;;2.27;2.17;;;6.50;15.90;;;;;;5035052;28;20475;-80
2024/01/29 05:47:49;;;;;;;2.60;2.40;;;6.50;15.40;;;;;;5035267;28;20449;-79
2024/01/29 05:50:18;;;;;;;2.10;2.00;;;6.50;15.80;;;;;;5035251;28;20530;-78
2024/01/29 05:52:47;;;;;;;2.33;2.23;;;6.50;15.90;;;;;;5031396;28;20554;-80
2024/01/29 05:55:15;;;;;;;2.00;1.90;;;6.50;15.60;;;;;;5034169;28;20953;-80
2024/01/29 05:57:44;;;;;;;2.33;1.80;;;6.50;16.10;;;;;;5031162;28;20452;-80
2024/01/29 06:00:13;;;;;;;2.00;1.80;;;6.50;16.70;;;;;;5025140;28;20546;-78
2024/01/29 06:02:45;;;;;;;3.47;2.50;;;6.50;16.80;;;;;;5033174;28;20483;-77
2024/01/29 06:05:14;;;;;;;2.23;2.13;;;6.50;16.50;;;;;;5035315;28;20465;-77
2024/01/29 06:07:43;;;;;;;2.47;2.27;;;6.40;17.20;;;;;;5030596;28;20460;-81
2024/01/29 06:10:16;;;;;;;2.90;2.30;;;6.40;17.70;;;;;;5034762;28;20444;-79
2024/01/29 06:12:44;;;;;;;2.40;2.20;;;6.30;17.10;;;;;;5033368;28;20444;-81
2024/01/29 06:15:12;;;;;;;3.13;2.93;;;6.30;20.10;;;;;;5035143;28;20961;-81
2024/01/29 06:17:41;;;;;;;5.57;2.77;;;6.30;17.80;;;;;;5034409;28;20814;-80
2024/01/29 06:20:12;;;;;;;2.20;2.10;;;6.20;17.20;;;;;;5037310;28;20950;-79
2024/01/29 06:22:46;;;;;;;2.50;2.30;;;6.20;18.10;;;;;;5036868;28;20474;-77
2024/01/29 06:25:19;;;;;;;2.20;2.00;;;6.20;18.10;;;;;;5036809;28;20463;-79
2024/01/29 06:27:47;;;;;;;2.20;2.00;;;6.20;18.80;;;;;;5037045;28;22207;-77
2024/01/29 06:30:16;;;;;;;2.47;2.27;;;6.20;19.40;;;;;;5032550;28;20551;-79
2024/01/29 06:32:44;;;;;;;2.90;2.70;;;6.20;19.10;;;;;;5035197;28;20459;-80
2024/01/29 06:35:12;;;;;;;2.40;2.30;;;6.10;18.30;;;;;;5038930;28;20550;-77
2024/01/29 06:37:40;;;;;;;4.23;2.37;;;6.10;17.50;;;;;;5039095;28;20492;-79
2024/01/29 06:40:09;;;;;;;3.20;2.90;;;6.10;18.60;;;;;;5039965;28;20444;-77
2024/01/29 06:42:39;;;;;;;3.13;2.43;;;6.10;18.10;;;;;;5038257;28;20573;-79
2024/01/29 06:45:08;;;;;;;2.73;2.63;;;6.20;19.00;;;;;;5037509;28;20498;-79
2024/01/29 06:47:36;;;;;;;3.00;2.70;;;6.20;19.80;;;;;;5038191;28;20478;-82
2024/01/29 06:50:05;;;;;;;6.13;3.10;;;6.20;20.60;;;;;;5035345;28;20458;-79
2024/01/29 06:52:33;;;;;;;3.27;3.03;;;6.20;20.80;;;;;;5037108;28;20595;-79
2024/01/29 06:55:02;;;;;;;3.90;3.03;;;6.30;21.40;;;;;;5039435;28;20452;-81
2024/01/29 06:57:30;;;;;;;4.40;3.57;;;6.20;22.10;;;;;;5038998;28;20444;-78
2024/01/29 07:00:00;;;;;;;4.17;3.87;;;6.20;21.80;;;;;;5039041;28;20506;-77
2024/01/29 07:02:28;;;;;;;3.37;3.07;;;6.30;22.20;;;;;;5038233;28;21010;-80
2024/01/29 07:04:56;;;;;;;3.30;3.00;;;6.20;22.40;;;;;;5040947;28;20480;-79
2024/01/29 07:07:24;;;;;;;3.80;3.50;;;6.30;22.50;;;;;;5038880;28;20812;-78
2024/01/29 07:09:54;;;;;;;4.20;3.83;;;6.30;22.60;;;;;;5039405;28;20462;-78
2024/01/29 07:12:23;;;;;;;6.53;4.40;;;6.30;23.20;;;;;;5037130;28;21294;-79
2024/01/29 07:14:53;;;;;;;5.00;4.57;;;6.20;23.20;;;;;;5037318;28;20448;-81
2024/01/29 07:17:23;;;;;;;4.27;3.80;;;6.20;24.70;;;;;;5032301;28;20452;-77
2024/01/29 07:19:52;;;;;;;3.80;3.40;;;6.20;25.60;;;;;;5035722;28;21712;-82
2024/01/29 07:22:21;;;;;;;3.70;3.40;;;6.20;26.10;;;;;;5035443;28;20464;-78
2024/01/29 07:24:50;;;;;;;7.03;4.00;;;6.10;26.20;;;;;;5037445;28;20487;-78
2024/01/29 07:27:18;;;;;;;3.87;3.57;;;6.10;25.00;;;;;;5037937;28;20461;-80
2024/01/29 07:29:46;;;;;;;3.80;3.40;;;6.10;26.40;;;;;;5036900;28;21158;-80
2024/01/29 07:32:14;;;;;;;4.33;3.93;;;6.10;27.60;;;;;;5034457;28;21265;-79
2024/01/29 07:34:44;;;;;;;6.00;3.73;;;6.10;28.60;;;;;;5038780;28;20957;-79
2024/01/29 07:37:12;;;;;;;3.80;3.50;;;6.00;27.30;;;;;;5039304;28;20529;-76
2024/01/29 07:39:42;;;;;;;4.00;3.70;;;6.10;28.90;;;;;;5036301;28;20461;-78
2024/01/29 07:42:10;;;;;;;4.57;3.80;;;6.10;29.70;;;;;;5034300;28;20790;-77
2024/01/29 07:44:38;;;;;;;3.40;3.20;;;6.10;29.20;;;;;;5033883;28;20610;-82
2024/01/29 07:47:07;;;;;;;3.63;3.33;;;6.10;31.60;;;;;;5039507;28;21214;-80
2024/01/29 07:49:35;;;;;;;3.37;3.10;;;6.10;30.70;;;;;;5038344;28;20464;-81
2024/01/29 07:52:05;;;;;;;3.37;3.10;;;6.10;32.00;;;;;;5035429;28;20549;-81
2024/01/29 07:54:33;;;;;;;5.23;4.23;;;6.20;33.10;;;;;;5039044;28;20456;-79
2024/01/29 07:57:03;;;;;;;3.57;3.27;;;6.30;33.50;;;;;;5041384;28;20466;-78
2024/01/29 07:59:31;;;;;;;3.57;3.37;;;6.50;35.90;;;;;;5039783;28;20440;-78
2024/01/29 08:01:59;;;;;;;3.95;3.55;;;6.70;40.60;;;;;;5036368;28;20828;-79
2024/01/29 08:04:28;;;;;;;3.40;3.17;;;6.80;56.10;;;;;;5030653;28;20233;-79
2024/01/29 08:06:58;;;;;;;2.90;2.63;;;7.00;43.00;;;;;;5038449;28;20548;-78
2024/01/29 08:09:28;;;;;;;3.43;3.23;;;7.10;41.20;;;;;;5038276;28;21012;-79
2024/01/29 08:11:56;;;;;;;2.73;2.53;;;7.20;40.90;;;;;;5038127;28;20538;-77
2024/01/29 08:14:25;;;;;;;7.70;2.97;;;7.40;42.80;;;;;;5034817;28;20462;-78
2024/01/29 08:16:53;;;;;;;3.47;3.17;;;7.60;45.10;;;;;;5037475;28;20452;-79
2024/01/29 08:19:21;;;;;;;3.20;2.90;;;7.80;44.80;;;;;;5035994;28;20444;-79
2024/01/29 08:21:52;;;;;;;3.00;2.70;;;7.90;44.10;;;;;;5035952;28;20491;-78
2024/01/29 08:24:21;;;;;;;3.20;3.00;;;8.10;59.70;;;;;;5039340;28;20484;-78
2024/01/29 08:26:50;;;;;;;7.43;3.77;;;8.20;44.80;;;;;;5038444;28;20452;-78
2024/01/29 08:29:18;;;;;;;5.43;4.77;;;8.30;47.80;;;;;;5037772;28;20474;-79
2024/01/29 08:31:46;;;;;;;4.67;3.43;;;8.50;60.20;;;;;;5040202;28;20483;-78
2024/01/29 08:34:15;;;;;;;3.00;2.80;;;8.50;47.30;;;;;;5040908;28;20488;-78
2024/01/29 08:36:43;;;;;;;4.17;3.60;;;8.60;46.50;;;;;;5037965;28;20463;-78
2024/01/29 08:39:11;;;;;;;3.30;3.07;;;8.70;47.30;;;;;;5037558;28;20444;-79
2024/01/29 08:41:39;;;;;;;8.50;3.90;;;8.80;46.70;;;;;;5038977;28;20468;-76
2024/01/29 08:44:09;;;;;;;3.60;3.30;;;8.80;44.50;;;;;;5038784;28;20475;-82
2024/01/29 08:46:37;;;;;;;6.00;4.03;;;8.80;45.00;;;;;;5038256;28;20464;-77
2024/01/29 08:49:06;;;;;;;6.60;4.40;;;8.80;45.40;;;;;;5037199;28;20465;-78
2024/01/29 08:51:34;;;;;;;8.83;5.00;;;8.70;43.40;;;;;;5037317;28;20486;-77
2024/01/29 08:54:03;;;;;;;8.10;4.47;;;8.90;59.10;;;;;;5039867;28;21222;-77
2024/01/29 08:56:31;;;;;;;5.57;4.60;;;9.10;47.40;;;;;;5038276;28;20541;-77
2024/01/29 08:58:59;;;;;;;7.90;4.90;;;9.30;48.70;;;;;;5036790;28;21166;-78
2024/01/29 09:01:29;;;;;;;4.87;3.83;;;9.50;49.90;;;;;;5036380;28;20865;-78
2024/01/29 09:03:57;;;;;;;6.47;4.67;;;9.70;50.60;;;;;;5034582;28;20557;-78
2024/01/29 09:06:26;;;;;;;9.07;3.87;;;9.80;49.50;;;;;;5035011;28;20467;-79
2024/01/29 09:08:54;;;;;;;4.97;3.83;;;9.90;49.70;;;;;;5039495;28;20529;-80
2024/01/29 09:11:22;;;;;;;4.73;4.33;;;10.20;50.30;;;;;;5037662;28;20479;-78
2024/01/29 09:13:50;;;;;;;4.13;3.83;;;10.10;48.70;;;;;;5038892;28;20548;-81
2024/01/29 09:16:19;;;;;;;4.10;3.70;;;10.20;48.10;;;;;;5038673;28;20456;-78
2024/01/29 09:18:49;;;;;;;3.40;3.10;;;10.20;46.10;;;;;;5039095;28;20557;-78
2024/01/29 09:21:17;;;;;;;3.27;3.00;;;10.20;45.60;;;;;;5037465;28;20499;-77
2024/01/29 09:23:45;;;;;;;4.33;3.93;;;10.10;44.90;;;;;;5039145;28;20456;-79
2024/01/29 09:26:13;;;;;;;3.53;3.30;;;10.10;43.50;;;;;;5040104;28;20812;-77
2024/01/29 09:28:43;;;;;;;3.77;2.70;;;10.10;41.80;;;;;;5039335;28;20447;-78
2024/01/29 09:31:11;;;;;;;5.93;2.80;;;10.20;38.40;;;;;;5036818;28;20480;-78
2024/01/29 09:33:39;;;;;;;3.67;3.43;;;10.20;39.60;;;;;;5039039;28;20448;-77
2024/01/29 09:36:09;;;;;;;3.97;3.67;;;10.10;38.80;;;;;;5037477;28;21044;-77
2024/01/29 09:38:38;;;;;;;2.93;2.73;;;10.20;39.20;;;;;;5037942;28;20463;-78
2024/01/29 09:41:06;;;;;;;6.03;2.77;;;10.30;54.60;;;;;;5039435;28;20534;-77
2024/01/29 09:43:35;;;;;;;3.00;2.70;;;10.60;41.90;;;;;;5039592;28;20509;-79
2024/01/29 09:46:04;;;;;;;4.13;3.30;;;11.00;47.40;;;;;;5038554;28;20476;-78
2024/01/29 09:48:34;;;;;;;4.27;3.70;;;11.50;50.40;;;;;;5035113;28;20455;-79
2024/01/29 09:51:04;;;;;;;3.57;3.27;;;11.90;53.70;;;;;;5036761;28;20570;-77
2024/01/29 09:53:36;;;;;;;3.63;3.13;;;12.50;56.50;;;;;;5039224;28;20461;-78
2024/01/29 09:56:05;;;;;;;2.93;2.73;;;13.10;62.70;;;;;;5040127;28;20445;-78
2024/01/29 09:58:33;;;;;;;3.40;3.10;;;13.70;68.70;;;;;;5035536;28;20537;-81
2024/01/29 10:01:08;;;;;;;3.00;2.80;;;14.30;76.70;;;;;;5053369;28;20476;-78
2024/01/29 10:03:39;;;;;;;2.80;2.70;;;15.00;81.00;;;;;;5039476;28;20523;-79
2024/01/29 10:06:08;;;;;;;3.40;2.70;;;15.40;85.90;;;;;;5039508;28;20477;-79
2024/01/29 10:08:38;;;;;;;2.63;2.40;;;15.80;90.20;;;;;;5037702;28;21434;-78
2024/01/29 10:11:07;;;;;;;2.07;1.90;;;16.20;89.90;;;;;;5037865;28;20472;-77
2024/01/29 10:13:35;;;;;;;1.90;1.60;;;16.80;92.20;;;;;;5037604;28;21194;-79
2024/01/29 10:16:04;;;;;;;1.67;1.57;;;17.40;95.00;;;;;;5035008;28;20471;-81
2024/01/29 10:18:32;;;;;;;2.00;1.67;;;18.10;97.70;;;;;;5034954;28;20453;-77
2024/01/29 10:21:01;;;;;;;1.73;1.63;;;18.40;98.40;;;;;;5036353;28;21352;-77
2024/01/29 10:23:31;;;;;;;1.70;1.47;;;18.50;98.40;;;;;;5036787;28;20946;-78
2024/01/29 10:26:01;;;;;;;1.70;1.60;;;18.90;99.40;;;;;;5034211;28;21159;-78
2024/01/29 10:28:30;;;;;;;1.50;1.40;;;19.80;99.90;;;;;;5033859;28;20457;-78
2024/01/29 10:30:58;;;;;;;1.50;1.40;;;20.60;99.90;;;;;;5037637;28;20461;-81
2024/01/29 10:33:26;;;;;;;1.63;1.53;;;21.10;99.90;;;;;;5034851;28;20543;-79
2024/01/29 10:35:58;;;;;;;1.63;1.53;;;21.80;99.90;;;;;;5035534;28;20455;-78
2024/01/29 10:38:29;;;;;;;1.50;1.40;;;22.50;99.90;;;;;;5032972;28;20460;-79
2024/01/29 10:41:01;;;;;;;1.40;1.30;;;23.20;99.90;;;;;;5035565;28;20927;-79
2024/01/29 10:43:36;;;;;;;1.70;1.60;;;23.80;99.90;;;;;;5036106;28;20520;-78
2024/01/29 10:46:09;;;;;;;1.63;1.53;;;24.50;99.90;;;;;;5033984;28;20482;-79
2024/01/29 10:48:38;;;;;;;1.40;1.30;;;24.80;99.90;;;;;;5032532;28;20497;-79
2024/01/29 10:51:08;;;;;;;1.73;1.63;;;25.70;99.90;;;;;;5034124;28;20476;-81
2024/01/29 10:53:37;;;;;;;1.80;1.70;;;25.80;99.90;;;;;;5036958;28;20467;-81
2024/01/29 10:56:08;;;;;;;1.87;1.77;;;26.40;99.90;;;;;;5034850;28;20458;-79
2024/01/29 10:58:38;;;;;;;2.23;1.90;;;26.80;99.90;;;;;;5030464;28;20479;-79
2024/01/29 11:01:07;;;;;;;1.80;1.70;;;27.30;99.90;;;;;;5036130;28;20481;-78
2024/01/29 11:03:36;;;;;;;2.67;1.77;;;26.90;99.90;;;;;;5035625;28;20458;-78
2024/01/29 11:06:21;;;;;;;1.70;1.60;;;28.10;99.90;;;;;;5035679;28;20526;-79
2024/01/29 11:08:54;;;;;;;1.80;1.70;;;27.70;99.90;;;;;;5034121;28;20810;-80
2024/01/29 11:11:27;;;;;;;1.87;1.50;;;27.10;99.90;;;;;;5036349;28;20471;-78
2024/01/29 11:13:56;;;;;;;2.50;1.60;;;25.80;99.90;;;;;;5037708;28;20466;-78
2024/01/29 11:16:25;;;;;;;2.20;2.00;;;24.40;99.90;;;;;;5034662;28;20468;-78
2024/01/29 11:18:54;;;;;;;2.03;1.60;;;23.00;99.90;;;;;;5029237;28;20476;-80
2024/01/29 11:21:26;;;;;;;2.20;1.87;;;22.00;99.90;;;;;;5034454;28;20558;-79
2024/01/29 11:23:56;;;;;;;2.03;1.93;;;21.70;99.90;;;;;;5033509;28;21300;-79
2024/01/29 11:26:28;;;;;;;2.00;1.90;;;21.70;99.90;;;;;;5032681;28;20627;-79
2024/01/29 11:28:57;;;;;;;2.00;1.80;;;22.00;99.90;;;;;;5036984;28;20554;-80
2024/01/29 11:31:38;;;;;;;1.90;1.80;;;22.50;99.90;;;;;;5038273;28;20569;-81
2024/01/29 11:34:07;;;;;;;2.97;1.47;;;24.40;99.90;;;;;;5033753;28;20461;-79
2024/01/29 11:36:36;;;;;;;1.93;1.60;;;25.60;99.90;;;;;;5036434;28;20459;-78
2024/01/29 11:39:06;;;;;;;2.90;1.70;;;25.30;99.90;;;;;;5033248;28;21273;-79
2024/01/29 11:41:36;;;;;;;1.80;1.70;;;24.70;99.90;;;;;;5035552;28;20482;-81
2024/01/29 11:44:05;;;;;;;2.53;2.33;;;22.90;99.90;;;;;;5037947;28;20452;-80
2024/01/29 11:46:33;;;;;;;2.70;2.50;;;21.50;99.90;;;;;;5038952;28;20475;-80
2024/01/29 11:49:01;;;;;;;2.47;1.97;;;20.70;96.20;;;;;;5031831;28;20462;-79
2024/01/29 11:51:29;;;;;;;1.70;1.60;;;20.00;90.60;;;;;;5034947;28;20512;-78
2024/01/29 11:53:59;;;;;;;1.60;1.50;;;19.40;80.10;;;;;;5036820;28;20456;-80
2024/01/29 11:56:28;;;;;;;2.90;1.80;;;18.90;71.80;;;;;;5034791;28;20436;-77
2024/01/29 11:59:05;;;;;;;1.60;1.50;;;18.60;66.30;;;;;;5036064;28;20467;-81
2024/01/29 12:01:33;;;;;;;1.50;1.40;;;18.20;59.80;;;;;;5053525;28;20511;-78
2024/01/29 12:04:02;;;;;;;1.80;1.70;;;18.10;58.30;;;;;;5038073;28;20484;-79
2024/01/29 12:06:34;;;;;;;1.50;1.40;;;17.90;56.50;;;;;;5031090;28;20491;-79
2024/01/29 12:09:03;;;;;;;1.90;1.80;;;17.90;58.30;;;;;;5032396;28;20462;-78
2024/01/29 12:11:31;;;;;;;1.60;1.50;;;18.00;59.00;;;;;;5040099;28;20490;-82
2024/01/29 12:13:59;;;;;;;2.20;2.00;;;18.00;59.10;;;;;;5033316;28;20453;-79
2024/01/29 12:16:30;;;;;;;1.70;1.60;;;18.00;62.70;;;;;;5036946;28;21245;-79
2024/01/29 12:18:59;;;;;;;2.90;1.80;;;18.00;61.80;;;;;;5033831;28;20459;-78
2024/01/29 12:21:28;;;;;;;1.80;1.57;;;17.90;60.50;;;;;;5036362;28;21084;-80
2024/01/29 12:23:57;;;;;;;1.70;1.60;;;17.50;54.40;;;;;;5039588;28;20561;-78
2024/01/29 12:26:28;;;;;;;2.07;1.90;;;17.60;55.50;;;;;;5035696;28;20505;-79
2024/01/29 12:28:59;;;;;;;1.80;1.70;;;17.60;57.00;;;;;;5034301;28;20467;-79
2024/01/29 12:31:32;;;;;;;1.90;1.80;;;17.70;57.50;;;;;;5035697;28;20591;-78
2024/01/29 12:34:00;;;;;;;1.90;1.80;;;17.50;55.60;;;;;;5038632;28;20459;-80
2024/01/29 12:36:29;;;;;;;3.47;3.17;;;17.70;56.80;;;;;;5040522;28;20444;-78
2024/01/29 12:38:58;;;;;;;1.60;1.50;;;17.70;56.70;;;;;;5037794;28;20969;-78
2024/01/29 12:41:34;;;;;;;2.30;1.73;;;17.60;55.90;;;;;;5038155;28;20504;-78
2024/01/29 12:44:10;;;;;;;2.03;1.83;;;17.60;55.10;;;;;;5036613;28;20538;-78
2024/01/29 12:46:40;;;;;;;1.80;1.70;;;17.40;51.20;;;;;;5036631;28;21558;-81
2024/01/29 12:49:09;;;;;;;2.67;2.47;;;17.20;64.80;;;;;;5036960;28;20460;-80
2024/01/29 12:51:38;;;;;;;2.00;1.80;;;17.20;48.90;;;;;;5033695;28;20509;-79
2024/01/29 12:54:07;;;;;;;2.50;2.40;;;17.20;50.60;;;;;;5034905;28;20980;-78
2024/01/29 12:56:35;;;;;;;2.43;2.23;;;17.30;52.20;;;;;;5029223;28;20456;-79
2024/01/29 12:59:06;;;;;;;1.93;1.83;;;17.20;49.90;;;;;;5036101;28;20468;-79
2024/01/29 13:01:35;;;;;;;2.10;2.00;;;17.10;49.40;;;;;;5033020;28;20504;-80